sensor_id;sensor_type;location;lat;lon;timestamp;P1;durP1;ratioP1;P2;durP2;ratioP2
31298;SDS011;17927;52.350;13.402;2023-06-26T00:00:10;11.18;;;9.13;;
31298;SDS011;17927;52.350;13.402;2023-06-26T00:02:36;11.77;;;8.35;;
31298;SDS011;17927;52.350;13.402;2023-06-26T00:05:01;10.23;;;9.23;;
31298;SDS011;17927;52.350;13.402;2023-06-26T00:07:29;10.73;;;9.63;;
31298;SDS011;17927;52.350;13.402;2023-06-26T00:09:56;9.38;;;8.40;;
31298;SDS011;17927;52.350;13.402;2023-06-26T00:12:22;9.88;;;8.98;;
31298;SDS011;17927;52.350;13.402;2023-06-26T00:14:47;12.43;;;9.75;;
31298;SDS011;17927;52.350;13.402;2023-06-26T00:17:12;10.52;;;9.38;;
31298;SDS011;17927;52.350;13.402;2023-06-26T00:19:37;10.70;;;9.60;;
31298;SDS011;17927;52.350;13.402;2023-06-26T00:22:02;9.85;;;8.98;;
31298;SDS011;17927;52.350;13.402;2023-06-26T00:24:28;12.88;;;8.93;;
31298;SDS011;17927;52.350;13.402;2023-06-26T00:26:53;9.77;;;8.90;;
31298;SDS011;17927;52.350;13.402;2023-06-26T00:29:18;10.60;;;9.60;;
31298;SDS011;17927;52.350;13.402;2023-06-26T00:31:44;9.15;;;8.35;;
31298;SDS011;17927;52.350;13.402;2023-06-26T00:34:09;11.15;;;10.15;;
31298;SDS011;17927;52.350;13.402;2023-06-26T00:36:34;12.73;;;9.43;;
31298;SDS011;17927;52.350;13.402;2023-06-26T00:39:00;11.18;;;10.05;;
31298;SDS011;17927;52.350;13.402;2023-06-26T00:41:25;10.95;;;9.43;;
31298;SDS011;17927;52.350;13.402;2023-06-26T00:43:50;11.93;;;9.73;;
31298;SDS011;17927;52.350;13.402;2023-06-26T00:46:16;11.38;;;10.15;;
31298;SDS011;17927;52.350;13.402;2023-06-26T00:48:42;13.27;;;9.57;;
31298;SDS011;17927;52.350;13.402;2023-06-26T00:51:10;9.77;;;8.88;;
31298;SDS011;17927;52.350;13.402;2023-06-26T00:53:36;9.07;;;8.35;;
31298;SDS011;17927;52.350;13.402;2023-06-26T00:56:03;12.02;;;9.02;;
31298;SDS011;17927;52.350;13.402;2023-06-26T00:58:30;9.43;;;8.57;;
31298;SDS011;17927;52.350;13.402;2023-06-26T01:00:55;10.07;;;9.02;;
31298;SDS011;17927;52.350;13.402;2023-06-26T01:03:24;9.07;;;8.35;;
31298;SDS011;17927;52.350;13.402;2023-06-26T01:05:51;11.75;;;9.23;;
31298;SDS011;17927;52.350;13.402;2023-06-26T01:08:17;9.77;;;8.95;;
31298;SDS011;17927;52.350;13.402;2023-06-26T01:10:44;11.35;;;8.80;;
31298;SDS011;17927;52.350;13.402;2023-06-26T01:13:10;10.20;;;9.20;;
31298;SDS011;17927;52.350;13.402;2023-06-26T01:15:36;12.10;;;9.52;;
31298;SDS011;17927;52.350;13.402;2023-06-26T01:18:02;12.10;;;9.57;;
31298;SDS011;17927;52.350;13.402;2023-06-26T01:20:35;11.68;;;9.90;;
31298;SDS011;17927;52.350;13.402;2023-06-26T01:23:15;10.70;;;9.75;;
31298;SDS011;17927;52.350;13.402;2023-06-26T01:28:47;11.70;;;10.35;;
31298;SDS011;17927;52.350;13.402;2023-06-26T01:31:15;14.15;;;11.20;;
31298;SDS011;17927;52.350;13.402;2023-06-26T01:33:41;12.95;;;11.77;;
31298;SDS011;17927;52.350;13.402;2023-06-26T01:36:08;16.38;;;12.77;;
31298;SDS011;17927;52.350;13.402;2023-06-26T01:38:33;17.20;;;12.50;;
31298;SDS011;17927;52.350;13.402;2023-06-26T01:40:59;13.30;;;11.93;;
31298;SDS011;17927;52.350;13.402;2023-06-26T01:46:23;16.55;;;11.35;;
31298;SDS011;17927;52.350;13.402;2023-06-26T01:49:02;17.77;;;11.35;;
31298;SDS011;17927;52.350;13.402;2023-06-26T01:51:47;10.35;;;9.40;;
31298;SDS011;17927;52.350;13.402;2023-06-26T01:54:23;12.27;;;9.60;;
31298;SDS011;17927;52.350;13.402;2023-06-26T01:56:50;11.80;;;10.32;;
31298;SDS011;17927;52.350;13.402;2023-06-26T01:59:18;10.60;;;9.52;;
31298;SDS011;17927;52.350;13.402;2023-06-26T02:01:46;11.25;;;10.07;;
31298;SDS011;17927;52.350;13.402;2023-06-26T02:04:11;10.45;;;9.38;;
31298;SDS011;17927;52.350;13.402;2023-06-26T02:06:37;11.13;;;9.23;;
31298;SDS011;17927;52.350;13.402;2023-06-26T02:09:02;9.85;;;9.05;;
31298;SDS011;17927;52.350;13.402;2023-06-26T02:11:28;10.18;;;9.05;;
31298;SDS011;17927;52.350;13.402;2023-06-26T02:13:53;9.90;;;9.00;;
31298;SDS011;17927;52.350;13.402;2023-06-26T02:16:19;10.98;;;9.65;;
31298;SDS011;17927;52.350;13.402;2023-06-26T02:18:44;12.18;;;10.07;;
31298;SDS011;17927;52.350;13.402;2023-06-26T02:21:09;10.13;;;9.15;;
31298;SDS011;17927;52.350;13.402;2023-06-26T02:23:34;11.40;;;10.40;;
31298;SDS011;17927;52.350;13.402;2023-06-26T02:26:00;10.77;;;9.82;;
31298;SDS011;17927;52.350;13.402;2023-06-26T02:28:25;10.13;;;9.15;;
31298;SDS011;17927;52.350;13.402;2023-06-26T02:30:50;11.27;;;10.25;;
31298;SDS011;17927;52.350;13.402;2023-06-26T02:33:15;12.23;;;10.60;;
31298;SDS011;17927;52.350;13.402;2023-06-26T02:35:41;11.07;;;10.02;;
31298;SDS011;17927;52.350;13.402;2023-06-26T02:38:06;12.35;;;11.02;;
31298;SDS011;17927;52.350;13.402;2023-06-26T02:40:31;11.60;;;10.40;;
31298;SDS011;17927;52.350;13.402;2023-06-26T02:42:56;14.30;;;12.95;;
31298;SDS011;17927;52.350;13.402;2023-06-26T02:45:22;15.73;;;13.05;;
31298;SDS011;17927;52.350;13.402;2023-06-26T02:47:47;13.23;;;11.88;;
31298;SDS011;17927;52.350;13.402;2023-06-26T02:50:12;13.75;;;12.35;;
31298;SDS011;17927;52.350;13.402;2023-06-26T02:52:37;14.85;;;12.57;;
31298;SDS011;17927;52.350;13.402;2023-06-26T02:55:04;11.20;;;10.18;;
31298;SDS011;17927;52.350;13.402;2023-06-26T02:57:30;14.80;;;11.35;;
31298;SDS011;17927;52.350;13.402;2023-06-26T02:59:55;16.00;;;11.80;;
31298;SDS011;17927;52.350;13.402;2023-06-26T03:02:20;11.98;;;10.50;;
31298;SDS011;17927;52.350;13.402;2023-06-26T03:04:46;12.88;;;11.68;;
31298;SDS011;17927;52.350;13.402;2023-06-26T03:07:11;13.85;;;12.00;;
31298;SDS011;17927;52.350;13.402;2023-06-26T03:09:36;12.70;;;11.07;;
31298;SDS011;17927;52.350;13.402;2023-06-26T03:12:01;13.93;;;11.85;;
31298;SDS011;17927;52.350;13.402;2023-06-26T03:14:27;12.07;;;10.88;;
31298;SDS011;17927;52.350;13.402;2023-06-26T03:16:52;11.70;;;10.55;;
31298;SDS011;17927;52.350;13.402;2023-06-26T03:19:20;12.57;;;11.30;;
31298;SDS011;17927;52.350;13.402;2023-06-26T03:21:46;12.80;;;11.50;;
31298;SDS011;17927;52.350;13.402;2023-06-26T03:24:11;13.18;;;11.88;;
31298;SDS011;17927;52.350;13.402;2023-06-26T03:26:36;12.88;;;11.50;;
31298;SDS011;17927;52.350;13.402;2023-06-26T03:29:01;13.00;;;11.63;;
31298;SDS011;17927;52.350;13.402;2023-06-26T03:31:27;13.73;;;11.93;;
31298;SDS011;17927;52.350;13.402;2023-06-26T03:33:52;13.80;;;12.40;;
31298;SDS011;17927;52.350;13.402;2023-06-26T03:36:17;12.90;;;11.70;;
31298;SDS011;17927;52.350;13.402;2023-06-26T03:38:42;13.55;;;12.18;;
31298;SDS011;17927;52.350;13.402;2023-06-26T03:41:08;15.52;;;12.45;;
31298;SDS011;17927;52.350;13.402;2023-06-26T03:43:33;19.35;;;12.05;;
31298;SDS011;17927;52.350;13.402;2023-06-26T03:45:58;13.75;;;12.35;;
31298;SDS011;17927;52.350;13.402;2023-06-26T03:48:24;13.55;;;12.25;;
31298;SDS011;17927;52.350;13.402;2023-06-26T03:50:49;14.10;;;12.65;;
31298;SDS011;17927;52.350;13.402;2023-06-26T03:53:14;12.75;;;11.43;;
31298;SDS011;17927;52.350;13.402;2023-06-26T03:55:39;12.88;;;11.75;;
31298;SDS011;17927;52.350;13.402;2023-06-26T03:58:05;13.43;;;12.13;;
31298;SDS011;17927;52.350;13.402;2023-06-26T04:00:30;13.13;;;11.93;;
31298;SDS011;17927;52.350;13.402;2023-06-26T04:02:55;14.38;;;12.88;;
31298;SDS011;17927;52.350;13.402;2023-06-26T04:05:21;13.95;;;12.48;;
31298;SDS011;17927;52.350;13.402;2023-06-26T04:07:50;13.85;;;12.35;;
31298;SDS011;17927;52.350;13.402;2023-06-26T04:10:16;14.50;;;13.00;;
31298;SDS011;17927;52.350;13.402;2023-06-26T04:12:41;12.65;;;11.43;;
31298;SDS011;17927;52.350;13.402;2023-06-26T04:15:07;12.90;;;11.65;;
31298;SDS011;17927;52.350;13.402;2023-06-26T04:17:32;13.80;;;12.40;;
31298;SDS011;17927;52.350;13.402;2023-06-26T04:19:58;13.93;;;12.60;;
31298;SDS011;17927;52.350;13.402;2023-06-26T04:22:23;12.68;;;11.38;;
31298;SDS011;17927;52.350;13.402;2023-06-26T04:24:48;12.77;;;11.55;;
31298;SDS011;17927;52.350;13.402;2023-06-26T04:27:14;12.68;;;11.52;;
31298;SDS011;17927;52.350;13.402;2023-06-26T04:29:39;15.75;;;11.32;;
31298;SDS011;17927;52.350;13.402;2023-06-26T04:32:04;12.15;;;10.80;;
31298;SDS011;17927;52.350;13.402;2023-06-26T04:34:30;12.45;;;11.38;;
31298;SDS011;17927;52.350;13.402;2023-06-26T04:36:59;11.98;;;10.98;;
31298;SDS011;17927;52.350;13.402;2023-06-26T04:39:24;12.18;;;10.82;;
31298;SDS011;17927;52.350;13.402;2023-06-26T04:41:50;12.90;;;11.60;;
31298;SDS011;17927;52.350;13.402;2023-06-26T04:44:15;12.82;;;11.18;;
31298;SDS011;17927;52.350;13.402;2023-06-26T04:46:40;12.43;;;11.15;;
31298;SDS011;17927;52.350;13.402;2023-06-26T04:49:08;15.35;;;11.82;;
31298;SDS011;17927;52.350;13.402;2023-06-26T04:51:34;12.00;;;10.93;;
31298;SDS011;17927;52.350;13.402;2023-06-26T04:54:05;11.80;;;9.70;;
31298;SDS011;17927;52.350;13.402;2023-06-26T04:56:34;12.45;;;11.18;;
31298;SDS011;17927;52.350;13.402;2023-06-26T04:59:00;13.18;;;11.57;;
31298;SDS011;17927;52.350;13.402;2023-06-26T05:01:25;12.35;;;11.15;;
31298;SDS011;17927;52.350;13.402;2023-06-26T05:03:53;12.30;;;10.98;;
31298;SDS011;17927;52.350;13.402;2023-06-26T05:06:19;12.18;;;10.73;;
31298;SDS011;17927;52.350;13.402;2023-06-26T05:08:44;12.18;;;10.98;;
31298;SDS011;17927;52.350;13.402;2023-06-26T05:11:09;12.90;;;10.77;;
31298;SDS011;17927;52.350;13.402;2023-06-26T05:13:34;12.05;;;10.88;;
31298;SDS011;17927;52.350;13.402;2023-06-26T05:16:00;12.57;;;10.20;;
31298;SDS011;17927;52.350;13.402;2023-06-26T05:18:25;12.75;;;10.02;;
31298;SDS011;17927;52.350;13.402;2023-06-26T05:20:50;11.23;;;9.98;;
31298;SDS011;17927;52.350;13.402;2023-06-26T05:23:16;12.13;;;9.93;;
31298;SDS011;17927;52.350;13.402;2023-06-26T05:25:42;12.60;;;10.63;;
31298;SDS011;17927;52.350;13.402;2023-06-26T05:28:08;11.27;;;10.18;;
31298;SDS011;17927;52.350;13.402;2023-06-26T05:30:38;12.65;;;10.57;;
31298;SDS011;17927;52.350;13.402;2023-06-26T05:33:03;10.75;;;9.68;;
31298;SDS011;17927;52.350;13.402;2023-06-26T05:35:30;10.48;;;9.57;;
31298;SDS011;17927;52.350;13.402;2023-06-26T05:37:56;9.98;;;9.07;;
31298;SDS011;17927;52.350;13.402;2023-06-26T05:40:22;12.30;;;9.77;;
31298;SDS011;17927;52.350;13.402;2023-06-26T05:42:48;10.32;;;9.40;;
31298;SDS011;17927;52.350;13.402;2023-06-26T05:45:14;17.40;;;11.55;;
31298;SDS011;17927;52.350;13.402;2023-06-26T05:47:39;12.70;;;10.00;;
31298;SDS011;17927;52.350;13.402;2023-06-26T05:50:05;11.55;;;10.25;;
31298;SDS011;17927;52.350;13.402;2023-06-26T05:52:32;15.05;;;9.80;;
31298;SDS011;17927;52.350;13.402;2023-06-26T05:54:57;14.90;;;9.77;;
31298;SDS011;17927;52.350;13.402;2023-06-26T05:57:25;11.15;;;10.15;;
31298;SDS011;17927;52.350;13.402;2023-06-26T05:59:54;13.00;;;10.13;;
31298;SDS011;17927;52.350;13.402;2023-06-26T06:02:20;9.82;;;8.98;;
31298;SDS011;17927;52.350;13.402;2023-06-26T06:04:45;12.77;;;9.38;;
31298;SDS011;17927;52.350;13.402;2023-06-26T06:07:11;10.63;;;9.55;;
31298;SDS011;17927;52.350;13.402;2023-06-26T06:09:36;10.07;;;9.00;;
31298;SDS011;17927;52.350;13.402;2023-06-26T06:12:02;10.32;;;8.77;;
31298;SDS011;17927;52.350;13.402;2023-06-26T06:14:29;10.45;;;9.32;;
31298;SDS011;17927;52.350;13.402;2023-06-26T06:16:54;10.48;;;9.00;;
31298;SDS011;17927;52.350;13.402;2023-06-26T06:19:20;8.73;;;8.02;;
31298;SDS011;17927;52.350;13.402;2023-06-26T06:21:45;8.90;;;8.00;;
31298;SDS011;17927;52.350;13.402;2023-06-26T06:24:10;8.73;;;7.93;;
31298;SDS011;17927;52.350;13.402;2023-06-26T06:26:35;8.15;;;7.43;;
31298;SDS011;17927;52.350;13.402;2023-06-26T06:29:01;8.18;;;7.57;;
31298;SDS011;17927;52.350;13.402;2023-06-26T06:31:26;7.82;;;7.22;;
31298;SDS011;17927;52.350;13.402;2023-06-26T06:33:53;7.13;;;6.63;;
31298;SDS011;17927;52.350;13.402;2023-06-26T06:36:18;6.80;;;6.40;;
31298;SDS011;17927;52.350;13.402;2023-06-26T06:38:44;7.38;;;6.68;;
31298;SDS011;17927;52.350;13.402;2023-06-26T06:41:09;6.45;;;5.95;;
31298;SDS011;17927;52.350;13.402;2023-06-26T06:43:34;6.30;;;5.82;;
31298;SDS011;17927;52.350;13.402;2023-06-26T06:46:00;6.68;;;6.07;;
31298;SDS011;17927;52.350;13.402;2023-06-26T06:48:26;6.38;;;5.88;;
31298;SDS011;17927;52.350;13.402;2023-06-26T06:50:51;6.70;;;6.20;;
31298;SDS011;17927;52.350;13.402;2023-06-26T06:53:17;6.75;;;5.90;;
31298;SDS011;17927;52.350;13.402;2023-06-26T06:55:45;6.60;;;6.00;;
31298;SDS011;17927;52.350;13.402;2023-06-26T06:58:10;6.53;;;6.05;;
31298;SDS011;17927;52.350;13.402;2023-06-26T07:00:36;6.30;;;5.70;;
31298;SDS011;17927;52.350;13.402;2023-06-26T07:03:01;6.45;;;5.78;;
31298;SDS011;17927;52.350;13.402;2023-06-26T07:05:26;6.20;;;5.70;;
31298;SDS011;17927;52.350;13.402;2023-06-26T07:07:51;6.43;;;5.93;;
31298;SDS011;17927;52.350;13.402;2023-06-26T07:10:17;6.97;;;5.70;;
31298;SDS011;17927;52.350;13.402;2023-06-26T07:12:42;5.93;;;5.53;;
31298;SDS011;17927;52.350;13.402;2023-06-26T07:15:09;6.07;;;5.57;;
31298;SDS011;17927;52.350;13.402;2023-06-26T07:17:34;6.15;;;5.75;;
31298;SDS011;17927;52.350;13.402;2023-06-26T07:20:00;8.27;;;6.25;;
31298;SDS011;17927;52.350;13.402;2023-06-26T07:22:26;5.35;;;4.97;;
31298;SDS011;17927;52.350;13.402;2023-06-26T07:24:52;12.43;;;7.32;;
31298;SDS011;17927;52.350;13.402;2023-06-26T07:27:17;6.53;;;5.95;;
31298;SDS011;17927;52.350;13.402;2023-06-26T07:29:44;6.00;;;5.60;;
31298;SDS011;17927;52.350;13.402;2023-06-26T07:32:09;6.50;;;5.82;;
31298;SDS011;17927;52.350;13.402;2023-06-26T07:34:34;6.28;;;5.68;;
31298;SDS011;17927;52.350;13.402;2023-06-26T07:37:00;7.22;;;5.72;;
31298;SDS011;17927;52.350;13.402;2023-06-26T07:39:25;6.47;;;5.97;;
31298;SDS011;17927;52.350;13.402;2023-06-26T07:41:50;6.05;;;5.55;;
31298;SDS011;17927;52.350;13.402;2023-06-26T07:44:15;5.82;;;5.43;;
31298;SDS011;17927;52.350;13.402;2023-06-26T07:46:41;5.55;;;5.03;;
31298;SDS011;17927;52.350;13.402;2023-06-26T07:49:06;5.35;;;5.05;;
31298;SDS011;17927;52.350;13.402;2023-06-26T07:51:31;5.68;;;5.28;;
31298;SDS011;17927;52.350;13.402;2023-06-26T07:53:57;5.97;;;5.50;;
31298;SDS011;17927;52.350;13.402;2023-06-26T07:56:22;5.63;;;5.22;;
31298;SDS011;17927;52.350;13.402;2023-06-26T07:58:47;5.25;;;4.95;;
31298;SDS011;17927;52.350;13.402;2023-06-26T08:01:12;5.32;;;5.03;;
31298;SDS011;17927;52.350;13.402;2023-06-26T08:03:38;7.05;;;6.03;;
31298;SDS011;17927;52.350;13.402;2023-06-26T08:06:03;11.18;;;6.65;;
31298;SDS011;17927;52.350;13.402;2023-06-26T08:08:29;4.88;;;4.57;;
31298;SDS011;17927;52.350;13.402;2023-06-26T08:10:54;8.82;;;5.65;;
31298;SDS011;17927;52.350;13.402;2023-06-26T08:13:19;4.97;;;4.68;;
31298;SDS011;17927;52.350;13.402;2023-06-26T08:15:45;4.90;;;4.60;;
31298;SDS011;17927;52.350;13.402;2023-06-26T08:18:10;5.13;;;4.82;;
31298;SDS011;17927;52.350;13.402;2023-06-26T08:20:35;4.80;;;4.50;;
31298;SDS011;17927;52.350;13.402;2023-06-26T08:23:02;6.38;;;4.68;;
31298;SDS011;17927;52.350;13.402;2023-06-26T08:25:28;4.82;;;4.53;;
31298;SDS011;17927;52.350;13.402;2023-06-26T08:27:53;4.93;;;4.63;;
31298;SDS011;17927;52.350;13.402;2023-06-26T08:30:19;4.93;;;4.53;;
31298;SDS011;17927;52.350;13.402;2023-06-26T08:32:44;4.15;;;3.95;;
31298;SDS011;17927;52.350;13.402;2023-06-26T08:35:09;5.05;;;4.65;;
31298;SDS011;17927;52.350;13.402;2023-06-26T08:37:35;5.47;;;5.05;;
31298;SDS011;17927;52.350;13.402;2023-06-26T08:40:00;7.10;;;6.60;;
31298;SDS011;17927;52.350;13.402;2023-06-26T08:42:25;5.60;;;5.20;;
31298;SDS011;17927;52.350;13.402;2023-06-26T08:44:51;12.50;;;11.45;;
31298;SDS011;17927;52.350;13.402;2023-06-26T08:47:17;6.20;;;5.60;;
31298;SDS011;17927;52.350;13.402;2023-06-26T08:49:47;8.23;;;7.72;;
31298;SDS011;17927;52.350;13.402;2023-06-26T08:52:24;5.40;;;5.07;;
31298;SDS011;17927;52.350;13.402;2023-06-26T08:54:58;5.15;;;4.65;;
31298;SDS011;17927;52.350;13.402;2023-06-26T08:57:24;4.65;;;4.35;;
31298;SDS011;17927;52.350;13.402;2023-06-26T08:59:51;5.90;;;5.38;;
31298;SDS011;17927;52.350;13.402;2023-06-26T09:02:17;8.00;;;5.30;;
31298;SDS011;17927;52.350;13.402;2023-06-26T09:04:43;6.30;;;5.80;;
31298;SDS011;17927;52.350;13.402;2023-06-26T09:07:08;4.60;;;4.30;;
31298;SDS011;17927;52.350;13.402;2023-06-26T09:09:34;5.63;;;5.32;;
31298;SDS011;17927;52.350;13.402;2023-06-26T09:12:01;4.60;;;4.22;;
31298;SDS011;17927;52.350;13.402;2023-06-26T09:14:28;6.57;;;3.78;;
31298;SDS011;17927;52.350;13.402;2023-06-26T09:16:54;4.43;;;4.05;;
31298;SDS011;17927;52.350;13.402;2023-06-26T09:19:19;4.55;;;4.25;;
31298;SDS011;17927;52.350;13.402;2023-06-26T09:21:44;5.00;;;4.70;;
31298;SDS011;17927;52.350;13.402;2023-06-26T09:24:10;4.10;;;3.90;;
31298;SDS011;17927;52.350;13.402;2023-06-26T09:26:36;3.97;;;3.78;;
31298;SDS011;17927;52.350;13.402;2023-06-26T09:29:03;3.60;;;3.40;;
31298;SDS011;17927;52.350;13.402;2023-06-26T09:31:29;4.18;;;3.75;;
31298;SDS011;17927;52.350;13.402;2023-06-26T09:33:55;3.88;;;3.58;;
31298;SDS011;17927;52.350;13.402;2023-06-26T09:36:25;3.88;;;3.58;;
31298;SDS011;17927;52.350;13.402;2023-06-26T09:38:53;3.65;;;3.35;;
31298;SDS011;17927;52.350;13.402;2023-06-26T09:41:18;4.10;;;3.80;;
31298;SDS011;17927;52.350;13.402;2023-06-26T09:43:49;3.75;;;3.53;;
31298;SDS011;17927;52.350;13.402;2023-06-26T09:46:16;4.30;;;4.00;;
31298;SDS011;17927;52.350;13.402;2023-06-26T09:48:48;4.63;;;3.50;;
31298;SDS011;17927;52.350;13.402;2023-06-26T09:51:14;4.15;;;3.90;;
31298;SDS011;17927;52.350;13.402;2023-06-26T09:53:41;3.70;;;3.50;;
31298;SDS011;17927;52.350;13.402;2023-06-26T09:56:07;3.83;;;3.63;;
31298;SDS011;17927;52.350;13.402;2023-06-26T09:58:32;3.47;;;3.15;;
31298;SDS011;17927;52.350;13.402;2023-06-26T10:00:58;3.47;;;3.28;;
31298;SDS011;17927;52.350;13.402;2023-06-26T10:03:23;3.83;;;3.53;;
31298;SDS011;17927;52.350;13.402;2023-06-26T10:05:49;4.07;;;3.78;;
31298;SDS011;17927;52.350;13.402;2023-06-26T10:08:15;5.22;;;3.40;;
31298;SDS011;17927;52.350;13.402;2023-06-26T10:10:41;3.88;;;3.60;;
31298;SDS011;17927;52.350;13.402;2023-06-26T10:13:08;3.70;;;3.50;;
31298;SDS011;17927;52.350;13.402;2023-06-26T10:15:39;3.60;;;3.40;;
31298;SDS011;17927;52.350;13.402;2023-06-26T10:18:09;4.05;;;3.70;;
31298;SDS011;17927;52.350;13.402;2023-06-26T10:20:35;3.63;;;3.42;;
31298;SDS011;17927;52.350;13.402;2023-06-26T10:23:01;3.40;;;3.20;;
31298;SDS011;17927;52.350;13.402;2023-06-26T10:25:28;3.63;;;3.42;;
31298;SDS011;17927;52.350;13.402;2023-06-26T10:27:57;3.47;;;3.28;;
31298;SDS011;17927;52.350;13.402;2023-06-26T10:30:26;5.47;;;3.40;;
31298;SDS011;17927;52.350;13.402;2023-06-26T10:32:54;4.05;;;3.70;;
31298;SDS011;17927;52.350;13.402;2023-06-26T10:35:20;3.85;;;3.47;;
31298;SDS011;17927;52.350;13.402;2023-06-26T10:37:47;3.55;;;3.35;;
31298;SDS011;17927;52.350;13.402;2023-06-26T10:40:14;3.20;;;3.00;;
31298;SDS011;17927;52.350;13.402;2023-06-26T10:42:45;3.47;;;3.10;;
31298;SDS011;17927;52.350;13.402;2023-06-26T10:45:14;4.15;;;3.70;;
31298;SDS011;17927;52.350;13.402;2023-06-26T10:47:44;3.38;;;3.17;;
31298;SDS011;17927;52.350;13.402;2023-06-26T10:50:18;3.53;;;3.23;;
31298;SDS011;17927;52.350;13.402;2023-06-26T10:52:45;3.10;;;2.90;;
31298;SDS011;17927;52.350;13.402;2023-06-26T10:55:11;3.47;;;3.28;;
31298;SDS011;17927;52.350;13.402;2023-06-26T10:57:38;3.28;;;3.08;;
31298;SDS011;17927;52.350;13.402;2023-06-26T11:00:09;3.38;;;3.17;;
31298;SDS011;17927;52.350;13.402;2023-06-26T11:02:48;4.57;;;3.67;;
31298;SDS011;17927;52.350;13.402;2023-06-26T11:05:24;3.50;;;3.30;;
31298;SDS011;17927;52.350;13.402;2023-06-26T11:08:03;3.38;;;3.17;;
31298;SDS011;17927;52.350;13.402;2023-06-26T11:10:29;3.60;;;3.30;;
31298;SDS011;17927;52.350;13.402;2023-06-26T11:13:12;4.35;;;3.95;;
31298;SDS011;17927;52.350;13.402;2023-06-26T11:15:38;4.40;;;3.35;;
31298;SDS011;17927;52.350;13.402;2023-06-26T11:18:03;3.33;;;3.13;;
31298;SDS011;17927;52.350;13.402;2023-06-26T11:20:29;3.83;;;3.63;;
31298;SDS011;17927;52.350;13.402;2023-06-26T11:22:54;7.22;;;3.92;;
31298;SDS011;17927;52.350;13.402;2023-06-26T11:25:21;4.15;;;3.60;;
31298;SDS011;17927;52.350;13.402;2023-06-26T11:27:48;5.00;;;3.78;;
31298;SDS011;17927;52.350;13.402;2023-06-26T11:30:24;4.13;;;3.85;;
31298;SDS011;17927;52.350;13.402;2023-06-26T11:32:50;3.80;;;3.60;;
31298;SDS011;17927;52.350;13.402;2023-06-26T11:35:25;3.42;;;3.22;;
31298;SDS011;17927;52.350;13.402;2023-06-26T11:37:57;3.33;;;3.03;;
31298;SDS011;17927;52.350;13.402;2023-06-26T11:40:25;3.40;;;3.20;;
31298;SDS011;17927;52.350;13.402;2023-06-26T11:42:56;3.95;;;3.58;;
31298;SDS011;17927;52.350;13.402;2023-06-26T11:45:23;3.60;;;3.40;;
31298;SDS011;17927;52.350;13.402;2023-06-26T11:47:48;4.28;;;3.97;;
31298;SDS011;17927;52.350;13.402;2023-06-26T11:50:16;3.63;;;3.42;;
31298;SDS011;17927;52.350;13.402;2023-06-26T11:52:42;3.63;;;3.42;;
31298;SDS011;17927;52.350;13.402;2023-06-26T11:55:08;3.85;;;3.55;;
31298;SDS011;17927;52.350;13.402;2023-06-26T11:57:35;3.63;;;3.40;;
31298;SDS011;17927;52.350;13.402;2023-06-26T12:00:10;4.25;;;3.90;;
31298;SDS011;17927;52.350;13.402;2023-06-26T12:02:38;4.05;;;3.85;;
31298;SDS011;17927;52.350;13.402;2023-06-26T12:05:04;3.95;;;3.75;;
31298;SDS011;17927;52.350;13.402;2023-06-26T12:07:30;4.93;;;3.65;;
31298;SDS011;17927;52.350;13.402;2023-06-26T12:09:56;3.92;;;3.60;;
31298;SDS011;17927;52.350;13.402;2023-06-26T12:12:23;6.78;;;4.00;;
31298;SDS011;17927;52.350;13.402;2023-06-26T12:14:50;4.93;;;4.25;;
31298;SDS011;17927;52.350;13.402;2023-06-26T12:17:16;5.00;;;4.38;;
31298;SDS011;17927;52.350;13.402;2023-06-26T12:19:45;4.13;;;3.55;;
31298;SDS011;17927;52.350;13.402;2023-06-26T12:22:15;4.75;;;4.45;;
31298;SDS011;17927;52.350;13.402;2023-06-26T12:24:42;4.50;;;4.20;;
31298;SDS011;17927;52.350;13.402;2023-06-26T12:27:08;4.70;;;4.40;;
31298;SDS011;17927;52.350;13.402;2023-06-26T12:29:38;4.60;;;4.20;;
31298;SDS011;17927;52.350;13.402;2023-06-26T12:32:09;4.18;;;3.97;;
31298;SDS011;17927;52.350;13.402;2023-06-26T12:34:36;4.18;;;3.70;;
31298;SDS011;17927;52.350;13.402;2023-06-26T12:37:04;5.03;;;4.70;;
31298;SDS011;17927;52.350;13.402;2023-06-26T12:39:50;4.15;;;3.95;;
31298;SDS011;17927;52.350;13.402;2023-06-26T12:42:16;4.72;;;4.32;;
31298;SDS011;17927;52.350;13.402;2023-06-26T12:44:43;4.25;;;4.03;;
31298;SDS011;17927;52.350;13.402;2023-06-26T12:47:08;3.90;;;3.70;;
31298;SDS011;17927;52.350;13.402;2023-06-26T12:49:35;4.10;;;3.90;;
31298;SDS011;17927;52.350;13.402;2023-06-26T12:52:03;5.68;;;4.45;;
31298;SDS011;17927;52.350;13.402;2023-06-26T12:54:30;3.92;;;3.63;;
31298;SDS011;17927;52.350;13.402;2023-06-26T12:56:56;4.25;;;3.95;;
31298;SDS011;17927;52.350;13.402;2023-06-26T12:59:22;4.25;;;3.95;;
31298;SDS011;17927;52.350;13.402;2023-06-26T13:01:47;4.28;;;4.07;;
31298;SDS011;17927;52.350;13.402;2023-06-26T13:04:12;4.43;;;4.13;;
31298;SDS011;17927;52.350;13.402;2023-06-26T13:06:38;4.13;;;3.92;;
31298;SDS011;17927;52.350;13.402;2023-06-26T13:09:03;4.43;;;4.22;;
31298;SDS011;17927;52.350;13.402;2023-06-26T13:11:29;4.97;;;4.57;;
31298;SDS011;17927;52.350;13.402;2023-06-26T13:13:55;5.90;;;4.07;;
31298;SDS011;17927;52.350;13.402;2023-06-26T13:16:20;4.23;;;3.97;;
31298;SDS011;17927;52.350;13.402;2023-06-26T13:18:45;4.30;;;4.00;;
31298;SDS011;17927;52.350;13.402;2023-06-26T13:21:10;4.35;;;4.05;;
31298;SDS011;17927;52.350;13.402;2023-06-26T13:23:36;5.47;;;4.20;;
31298;SDS011;17927;52.350;13.402;2023-06-26T13:26:01;5.82;;;4.07;;
31298;SDS011;17927;52.350;13.402;2023-06-26T13:28:26;4.20;;;3.70;;
31298;SDS011;17927;52.350;13.402;2023-06-26T13:30:51;5.00;;;4.13;;
31298;SDS011;17927;52.350;13.402;2023-06-26T13:33:17;4.17;;;3.90;;
31298;SDS011;17927;52.350;13.402;2023-06-26T13:35:42;4.63;;;4.33;;
31298;SDS011;17927;52.350;13.402;2023-06-26T13:38:07;4.03;;;3.83;;
31298;SDS011;17927;52.350;13.402;2023-06-26T13:40:32;3.73;;;3.53;;
31298;SDS011;17927;52.350;13.402;2023-06-26T13:42:58;3.67;;;3.37;;
31298;SDS011;17927;52.350;13.402;2023-06-26T13:45:24;4.00;;;3.80;;
31298;SDS011;17927;52.350;13.402;2023-06-26T13:47:50;3.60;;;3.40;;
31298;SDS011;17927;52.350;13.402;2023-06-26T13:50:15;4.40;;;3.55;;
31298;SDS011;17927;52.350;13.402;2023-06-26T13:52:40;3.90;;;3.60;;
31298;SDS011;17927;52.350;13.402;2023-06-26T13:55:06;5.27;;;3.50;;
31298;SDS011;17927;52.350;13.402;2023-06-26T13:57:31;4.13;;;3.80;;
31298;SDS011;17927;52.350;13.402;2023-06-26T13:59:56;3.70;;;3.50;;
31298;SDS011;17927;52.350;13.402;2023-06-26T14:02:22;4.30;;;3.90;;
31298;SDS011;17927;52.350;13.402;2023-06-26T14:04:48;3.83;;;3.63;;
31298;SDS011;17927;52.350;13.402;2023-06-26T14:07:13;4.40;;;3.33;;
31298;SDS011;17927;52.350;13.402;2023-06-26T14:09:39;4.50;;;4.20;;
31298;SDS011;17927;52.350;13.402;2023-06-26T14:12:04;4.40;;;4.00;;
31298;SDS011;17927;52.350;13.402;2023-06-26T14:14:30;4.35;;;4.15;;
31298;SDS011;17927;52.350;13.402;2023-06-26T14:16:56;4.23;;;4.03;;
31298;SDS011;17927;52.350;13.402;2023-06-26T14:19:21;4.63;;;4.32;;
31298;SDS011;17927;52.350;13.402;2023-06-26T14:21:46;5.03;;;4.47;;
31298;SDS011;17927;52.350;13.402;2023-06-26T14:24:11;4.30;;;4.05;;
31298;SDS011;17927;52.350;13.402;2023-06-26T14:26:37;4.30;;;4.10;;